Time;durP1;ratioP1;P1;durP2;ratioP2;P2;SDS_P1;SDS_P2;PMS_P1;PMS_P2;Temp;Humidity;BMP_temperature;BMP_pressure;BME280_temperature;BME280_humidity;BME280_pressure;Samples;Min_cycle;Max_cycle;Signal;HPM_P1;HPM_P2
2022/10/09 00:01:02;;;;;;;16.00;4.82;;;;;;;7.80;100.00;102359.81;5030977;28;20241;-70
2022/10/09 00:03:27;;;;;;;10.00;4.57;;;;;;;7.79;100.00;102366.22;5019206;28;20104;-70
2022/10/09 00:05:52;;;;;;;11.57;5.00;;;;;;;7.77;100.00;102366.38;5014824;28;20468;-70
2022/10/09 00:08:18;;;;;;;11.43;5.10;;;;;;;7.73;100.00;102366.88;5014767;28;20101;-70
2022/10/09 00:10:43;;;;;;;10.40;5.25;;;;;;;7.71;100.00;102374.28;5013210;28;20026;-70
2022/10/09 00:13:10;;;;;;;11.60;4.90;;;;;;;7.75;100.00;102364.88;5025004;28;20461;-70
2022/10/09 00:15:40;;;;;;;10.07;4.97;;;;;;;7.66;100.00;102371.28;5014031;28;20034;-70
2022/10/09 00:18:06;;;;;;;10.43;4.78;;;;;;;7.60;100.00;102373.59;5014874;28;20025;-70
2022/10/09 00:20:35;;;;;;;11.85;4.85;;;;;;;7.56;100.00;102368.72;5014299;28;20081;-70
2022/10/09 00:23:01;;;;;;;12.98;4.97;;;;;;;7.58;100.00;102364.88;5013493;28;20072;-70
2022/10/09 00:25:26;;;;;;;10.75;4.95;;;;;;;7.57;100.00;102368.56;5014214;28;20056;-70
2022/10/09 00:27:51;;;;;;;10.27;5.53;;;;;;;7.59;100.00;102371.94;5014412;28;20116;-70
2022/10/09 00:30:16;;;;;;;10.68;5.00;;;;;;;7.61;100.00;102369.91;5013861;28;20454;-70
2022/10/09 00:32:42;;;;;;;13.43;5.10;;;;;;;7.57;100.00;102373.13;5020233;28;20033;-70
2022/10/09 00:35:07;;;;;;;11.88;5.30;;;;;;;7.50;100.00;102372.94;5033948;28;20021;-70
2022/10/09 00:37:32;;;;;;;9.38;4.78;;;;;;;7.48;100.00;102358.78;5034097;28;20423;-70
2022/10/09 00:39:58;;;;;;;12.25;5.05;;;;;;;7.45;100.00;102364.50;5032654;28;20029;-70
2022/10/09 00:42:25;;;;;;;8.77;4.78;;;;;;;7.40;100.00;102361.50;5028271;28;20446;-70
2022/10/09 00:44:58;;;;;;;13.90;5.68;;;;;;;7.49;100.00;102362.31;5012315;28;20034;-70
2022/10/09 00:47:28;;;;;;;11.40;5.07;;;;;;;7.39;100.00;102354.41;5012566;28;20036;-70
2022/10/09 00:49:57;;;;;;;9.95;5.40;;;;;;;7.44;100.00;102360.13;5013480;28;20030;-70
2022/10/09 00:52:24;;;;;;;12.18;5.13;;;;;;;7.40;100.00;102362.31;5013172;28;20029;-70
2022/10/09 00:54:52;;;;;;;9.45;4.78;;;;;;;7.40;100.00;102364.19;5013685;28;20029;-70
2022/10/09 00:57:18;;;;;;;10.65;5.38;;;;;;;7.34;100.00;102364.84;5045263;28;20026;-70
2022/10/09 00:59:44;;;;;;;10.70;4.80;;;;;;;7.35;100.00;102358.44;5013395;28;20368;-70
2022/10/09 01:02:10;;;;;;;10.55;4.60;;;;;;;7.32;100.00;102354.22;5010640;28;20156;-70
2022/10/09 01:04:35;;;;;;;11.18;4.80;;;;;;;7.32;100.00;102364.16;5012025;28;20127;-70
2022/10/09 01:07:26;;;;;;;11.25;4.72;;;;;;;7.23;100.00;102358.78;5018765;28;20025;-70
2022/10/09 01:10:03;;;;;;;13.43;5.00;;;;;;;7.15;100.00;102357.91;5028639;28;20013;-70
2022/10/09 01:12:33;;;;;;;10.68;5.05;;;;;;;7.21;100.00;102359.94;5012607;28;20057;-70
2022/10/09 01:15:21;;;;;;;13.70;5.15;;;;;;;7.30;100.00;102360.81;5013281;28;20025;-70
2022/10/09 01:18:01;;;;;;;10.52;4.95;;;;;;;7.20;100.00;102356.41;5011825;28;20033;-70
2022/10/09 01:20:32;;;;;;;12.63;5.65;;;;;;;7.21;100.00;102357.25;5013343;28;20408;-70
2022/10/09 01:23:02;;;;;;;10.57;4.85;;;;;;;7.21;100.00;102359.94;5016563;28;20071;-70
2022/10/09 01:25:51;;;;;;;10.27;5.22;;;;;;;7.19;100.00;102360.09;5019449;28;20532;-70
2022/10/09 01:28:19;;;;;;;12.38;5.05;;;;;;;7.12;100.00;102364.47;5032869;28;20063;-70
2022/10/09 01:30:46;;;;;;;14.15;5.50;;;;;;;7.06;100.00;102359.72;5032593;28;20021;-70
2022/10/09 01:33:13;;;;;;;9.82;5.13;;;;;;;7.00;100.00;102355.00;5030423;28;20036;-70
2022/10/09 01:35:40;;;;;;;11.80;5.00;;;;;;;6.98;100.00;102352.47;5031148;28;20029;-70
2022/10/09 01:38:06;;;;;;;12.05;5.28;;;;;;;7.00;100.00;102347.78;5047998;28;20140;-70
2022/10/09 01:40:32;;;;;;;10.25;5.00;;;;;;;6.95;100.00;102347.44;5032415;28;20044;-69
2022/10/09 01:42:58;;;;;;;8.32;4.82;;;;;;;7.01;100.00;102343.25;5030985;28;20060;-70
2022/10/09 01:45:24;;;;;;;10.57;5.05;;;;;;;6.96;100.00;102342.88;5011714;28;20049;-70
2022/10/09 01:47:49;;;;;;;11.48;5.35;;;;;;;6.98;100.00;102340.88;5011424;28;20030;-70
2022/10/09 01:50:23;;;;;;;14.02;5.40;;;;;;;6.97;100.00;102333.81;5012806;28;20025;-70
2022/10/09 01:53:02;;;;;;;12.00;4.80;;;;;;;6.96;100.00;102332.13;5025659;28;20566;-70
2022/10/09 01:55:47;;;;;;;13.75;5.80;;;;;;;7.01;100.00;102329.78;5031338;28;20105;-70
2022/10/09 01:58:26;;;;;;;8.32;4.85;;;;;;;7.00;100.00;102334.31;5031344;28;20022;-70
2022/10/09 02:01:15;;;;;;;9.18;5.15;;;;;;;6.97;100.00;102328.44;5029952;28;20477;-70
2022/10/09 02:03:46;;;;;;;10.85;4.85;;;;;;;6.85;100.00;102319.81;5030903;28;20400;-70
2022/10/09 02:06:14;;;;;;;9.18;5.03;;;;;;;6.87;100.00;102315.97;5032594;28;20025;-70
2022/10/09 02:08:43;;;;;;;9.77;4.85;;;;;;;6.88;100.00;102320.34;5032007;28;20116;-70
2022/10/09 02:11:10;;;;;;;9.25;4.88;;;;;;;6.78;100.00;102308.88;5028422;28;20484;-70
2022/10/09 02:13:37;;;;;;;10.85;5.03;;;;;;;6.74;100.00;102308.34;5012282;28;20029;-70
2022/10/09 02:16:14;;;;;;;10.48;5.50;;;;;;;6.79;100.00;102315.94;5011466;28;20030;-70
2022/10/09 02:18:47;;;;;;;12.35;5.18;;;;;;;6.69;100.00;102316.06;5010901;28;20030;-70
2022/10/09 02:21:25;;;;;;;10.27;5.00;;;;;;;6.70;100.00;102312.38;5011118;28;20163;-70
2022/10/09 02:23:51;;;;;;;10.25;5.43;;;;;;;6.60;100.00;102308.13;5043415;28;20033;-70
2022/10/09 02:26:18;;;;;;;12.57;6.07;;;;;;;6.55;100.00;102304.09;5012050;28;20641;-70
2022/10/09 02:28:44;;;;;;;9.43;5.28;;;;;;;6.56;100.00;102302.25;5027382;28;20105;-70
2022/10/09 02:31:24;;;;;;;13.20;5.72;;;;;;;6.63;100.00;102300.59;5014354;28;20132;-70
2022/10/09 02:33:57;;;;;;;13.20;5.57;;;;;;;6.55;100.00;102293.34;5030444;28;20021;-70
2022/10/09 02:36:24;;;;;;;11.85;5.28;;;;;;;6.55;100.00;102297.84;5030733;28;20025;-70
2022/10/09 02:38:49;;;;;;;9.98;5.25;;;;;;;6.60;100.00;102297.38;5031810;28;20029;-70
2022/10/09 02:41:14;;;;;;;9.38;5.38;;;;;;;6.54;100.00;102302.41;5025671;28;20022;-70
2022/10/09 02:43:42;;;;;;;10.93;5.10;;;;;;;6.55;100.00;102298.72;5012254;28;20036;-70
2022/10/09 02:46:08;;;;;;;9.13;5.05;;;;;;;6.51;100.00;102297.34;5010893;28;20025;-70
2022/10/09 02:48:33;;;;;;;10.85;5.57;;;;;;;6.52;100.00;102293.66;5011939;28;20370;-69
2022/10/09 02:50:59;;;;;;;11.00;5.30;;;;;;;6.54;100.00;102298.88;5014832;28;20096;-70
2022/10/09 02:53:25;;;;;;;14.30;5.65;;;;;;;6.47;100.00;102297.84;5022981;28;20022;-70
2022/10/09 02:55:50;;;;;;;10.70;5.90;;;;;;;6.53;100.00;102300.72;5012128;28;20022;-70
2022/10/09 02:58:15;;;;;;;11.25;6.20;;;;;;;6.61;100.00;102301.75;5012148;28;20029;-70
2022/10/09 03:00:41;;;;;;;12.27;6.00;;;;;;;6.52;100.00;102296.34;5019645;28;20322;-70
2022/10/09 03:03:06;;;;;;;13.10;5.70;;;;;;;6.55;100.00;102295.16;5012081;28;20457;-70
2022/10/09 03:05:31;;;;;;;13.05;5.80;;;;;;;6.54;100.00;102291.66;5012004;28;20022;-70
2022/10/09 03:07:57;;;;;;;10.02;5.40;;;;;;;6.50;100.00;102290.28;5012088;28;20075;-70
2022/10/09 03:10:23;;;;;;;9.90;5.68;;;;;;;6.48;100.00;102288.78;5015051;28;20029;-70
2022/10/09 03:12:48;;;;;;;11.75;5.68;;;;;;;6.43;100.00;102283.03;5015289;28;20072;-70
2022/10/09 03:15:13;;;;;;;14.70;5.75;;;;;;;6.39;100.00;102282.53;5014168;28;20037;-70
2022/10/09 03:17:39;;;;;;;13.10;6.18;;;;;;;6.45;100.00;102276.50;5015974;28;20044;-69
2022/10/09 03:20:05;;;;;;;13.20;6.25;;;;;;;6.47;100.00;102295.97;5028321;28;20022;-70
2022/10/09 03:22:30;;;;;;;11.27;6.13;;;;;;;6.40;100.00;102281.50;5013878;28;20079;-70
2022/10/09 03:24:56;;;;;;;13.25;6.20;;;;;;;6.35;100.00;102286.53;5015012;28;20052;-69
2022/10/09 03:27:21;;;;;;;12.38;6.30;;;;;;;6.35;100.00;102289.22;5015301;28;20033;-70
2022/10/09 03:29:47;;;;;;;11.75;6.30;;;;;;;6.30;100.00;102278.94;5013995;28;20073;-70
2022/10/09 03:32:13;;;;;;;13.38;6.40;;;;;;;6.32;100.00;102278.78;5028826;28;20052;-70
2022/10/09 03:34:38;;;;;;;12.68;6.45;;;;;;;6.31;100.00;102277.97;5014878;28;20392;-69
2022/10/09 03:37:04;;;;;;;11.70;5.88;;;;;;;6.36;100.00;102278.28;5025881;28;20027;-70
2022/10/09 03:39:29;;;;;;;12.20;6.30;;;;;;;6.32;100.00;102276.09;5033601;28;20372;-70
2022/10/09 03:41:55;;;;;;;14.48;6.30;;;;;;;6.33;100.00;102270.56;5031047;28;20104;-70
2022/10/09 03:44:20;;;;;;;11.13;5.93;;;;;;;6.32;100.00;102270.72;5033629;28;20033;-68
2022/10/09 03:46:45;;;;;;;9.77;6.03;;;;;;;6.33;100.00;102277.78;5034774;28;20052;-69
2022/10/09 03:49:11;;;;;;;10.75;5.35;;;;;;;6.32;100.00;102268.88;5034995;28;20017;-69
2022/10/09 03:51:37;;;;;;;14.00;6.00;;;;;;;6.32;100.00;102276.94;5032933;28;20033;-70
2022/10/09 03:54:02;;;;;;;12.77;6.65;;;;;;;6.32;100.00;102270.72;5034096;28;20052;-69
2022/10/09 03:56:28;;;;;;;11.32;5.95;;;;;;;6.36;100.00;102269.41;5033120;28;20051;-69
2022/10/09 03:58:53;;;;;;;11.73;5.70;;;;;;;6.37;100.00;102279.13;5034317;28;20023;-69
2022/10/09 04:01:18;;;;;;;13.50;5.82;;;;;;;6.36;100.00;102283.69;5018278;28;20484;-69
2022/10/09 04:03:44;;;;;;;19.27;6.05;;;;;;;6.33;100.00;102284.00;5013949;28;20112;-69
2022/10/09 04:06:09;;;;;;;8.43;5.28;;;;;;;6.36;100.00;102285.53;5013433;28;20010;-70
2022/10/09 04:08:34;;;;;;;11.45;5.68;;;;;;;6.29;100.00;102293.38;5014507;28;20021;-69
2022/10/09 04:11:00;;;;;;;11.80;5.97;;;;;;;6.19;100.00;102282.78;5023517;28;20022;-70
2022/10/09 04:13:26;;;;;;;9.65;5.88;;;;;;;6.22;100.00;102284.31;5025815;28;20466;-69
2022/10/09 04:15:52;;;;;;;14.30;6.15;;;;;;;6.10;100.00;102281.03;5014125;28;20033;-69
2022/10/09 04:18:18;;;;;;;10.15;5.88;;;;;;;6.13;100.00;102283.41;5014621;28;20022;-70
2022/10/09 04:20:54;;;;;;;10.18;5.90;;;;;;;6.08;100.00;102283.03;5035077;28;20120;-70
2022/10/09 04:23:21;;;;;;;11.32;5.40;;;;;;;6.08;100.00;102282.19;5033897;28;20046;-69
2022/10/09 04:25:47;;;;;;;10.95;5.90;;;;;;;6.03;100.00;102282.69;5032664;28;20034;-70
2022/10/09 04:28:12;;;;;;;9.82;5.65;;;;;;;5.98;100.00;102276.97;5033899;28;20023;-70
2022/10/09 04:30:38;;;;;;;11.77;6.00;;;;;;;5.96;100.00;102270.84;5032585;28;20048;-70
2022/10/09 04:33:03;;;;;;;17.33;6.05;;;;;;;5.93;100.00;102277.38;5014529;28;20026;-69
2022/10/09 04:35:28;;;;;;;11.13;5.47;;;;;;;5.93;100.00;102266.63;5012898;28;20018;-70
2022/10/09 04:37:54;;;;;;;10.95;5.75;;;;;;;5.90;100.00;102264.25;5029266;28;20064;-70
2022/10/09 04:40:19;;;;;;;9.95;5.60;;;;;;;5.91;100.00;102267.81;5028607;28;20441;-69
2022/10/09 04:42:44;;;;;;;12.63;5.88;;;;;;;5.93;100.00;102268.47;5012629;28;20032;-69
2022/10/09 04:45:10;;;;;;;11.82;6.00;;;;;;;5.95;100.00;102270.00;5013813;28;20030;-70
2022/10/09 04:47:35;;;;;;;9.52;5.25;;;;;;;5.95;100.00;102263.78;5013824;28;20029;-70
2022/10/09 04:50:01;;;;;;;9.02;5.28;;;;;;;5.90;100.00;102261.56;5018321;28;20022;-70
2022/10/09 04:52:26;;;;;;;8.80;5.70;;;;;;;5.84;100.00;102257.69;5048773;28;20025;-70
2022/10/09 04:54:52;;;;;;;9.38;5.60;;;;;;;5.79;100.00;102265.38;5032106;28;20391;-70
2022/10/09 04:57:17;;;;;;;11.30;6.07;;;;;;;5.88;100.00;102260.06;5032386;28;20025;-70
2022/10/09 04:59:42;;;;;;;9.90;5.43;;;;;;;5.86;100.00;102261.06;5028818;28;20016;-69
2022/10/09 05:02:08;;;;;;;8.90;5.95;;;;;;;5.77;100.00;102253.97;5026452;28;20026;-70
2022/10/09 05:04:33;;;;;;;10.77;5.85;;;;;;;5.80;100.00;102250.94;5013805;28;20108;-70
2022/10/09 05:06:58;;;;;;;11.63;5.50;;;;;;;5.81;100.00;102247.28;5013246;28;20026;-69
2022/10/09 05:09:24;;;;;;;13.95;5.68;;;;;;;5.75;100.00;102245.22;5026006;28;20079;-69
2022/10/09 05:11:49;;;;;;;9.77;5.45;;;;;;;5.79;100.00;102243.88;5013080;28;20060;-70
2022/10/09 05:14:14;;;;;;;9.20;5.82;;;;;;;5.72;100.00;102242.00;5013228;28;20025;-70
2022/10/09 05:16:40;;;;;;;9.52;5.45;;;;;;;5.72;100.00;102242.81;5013621;28;20458;-70
2022/10/09 05:19:05;;;;;;;10.00;5.95;;;;;;;5.74;100.00;102246.22;5012954;28;20079;-70
2022/10/09 05:21:30;;;;;;;10.32;5.82;;;;;;;5.74;100.00;102240.84;5025677;28;20105;-70
2022/10/09 05:23:56;;;;;;;8.45;5.47;;;;;;;5.75;100.00;102237.16;5011700;28;20044;-70
2022/10/09 05:26:23;;;;;;;13.70;5.85;;;;;;;5.73;100.00;102233.78;5012120;28;20405;-70
2022/10/09 05:28:49;;;;;;;10.15;5.75;;;;;;;5.67;100.00;102239.78;5012806;28;20116;-70
2022/10/09 05:31:21;;;;;;;11.70;5.80;;;;;;;5.66;100.00;102244.31;5012299;28;20425;-70
2022/10/09 05:33:46;;;;;;;9.52;5.35;;;;;;;5.59;100.00;102242.44;5012822;28;20033;-69
2022/10/09 05:36:13;;;;;;;10.77;5.85;;;;;;;5.64;100.00;102234.72;5013201;28;20454;-70
2022/10/09 05:38:38;;;;;;;9.50;5.75;;;;;;;5.58;100.00;102233.50;5028398;28;20080;-70
2022/10/09 05:41:06;;;;;;;11.52;6.10;;;;;;;5.60;100.00;102244.09;5025074;28;20018;-70
2022/10/09 05:43:35;;;;;;;16.08;6.72;;;;;;;5.59;100.00;102237.06;5048251;28;20029;-70
2022/10/09 05:46:16;;;;;;;8.63;6.13;;;;;;;5.65;100.00;102244.47;5032365;28;20096;-70
2022/10/09 05:48:44;;;;;;;11.93;6.50;;;;;;;5.59;100.00;102237.06;5021773;28;20091;-70
2022/10/09 05:51:16;;;;;;;13.20;7.13;;;;;;;5.62;100.00;102236.75;5023033;28;20022;-70
2022/10/09 05:53:43;;;;;;;12.85;6.93;;;;;;;5.67;100.00;102239.78;5013321;28;20030;-70
2022/10/09 05:56:30;;;;;;;10.98;6.40;;;;;;;5.68;100.00;102231.56;5011415;28;20029;-70
2022/10/09 05:59:00;;;;;;;11.00;6.53;;;;;;;5.59;100.00;102231.69;5019900;28;20033;-70
2022/10/09 06:01:31;;;;;;;12.35;6.70;;;;;;;5.59;100.00;102235.22;5028550;28;20053;-70
2022/10/09 06:03:58;;;;;;;8.70;6.28;;;;;;;5.60;100.00;102233.34;5032121;28;20026;-70
2022/10/09 06:06:28;;;;;;;11.80;6.50;;;;;;;5.63;100.00;102235.72;5032251;28;20059;-70
2022/10/09 06:08:54;;;;;;;10.20;6.82;;;;;;;5.68;100.00;102238.78;5025818;28;20487;-70
2022/10/09 06:11:20;;;;;;;12.20;6.47;;;;;;;5.67;100.00;102231.72;5032400;28;20464;-70
2022/10/09 06:13:47;;;;;;;11.82;7.05;;;;;;;5.70;100.00;102236.78;5032316;28;20052;-70
2022/10/09 06:16:14;;;;;;;11.75;7.18;;;;;;;5.69;100.00;102237.78;5032152;28;20481;-70
2022/10/09 06:18:41;;;;;;;13.35;6.55;;;;;;;5.68;100.00;102236.94;5030963;28;20029;-70
2022/10/09 06:21:06;;;;;;;11.27;6.40;;;;;;;5.80;100.00;102234.00;5032253;28;20037;-70
2022/10/09 06:23:32;;;;;;;13.00;6.88;;;;;;;5.83;100.00;102239.88;5030668;28;20125;-70
2022/10/09 06:26:00;;;;;;;14.82;6.63;;;;;;;5.89;100.00;102248.28;5031814;28;20022;-70
2022/10/09 06:28:30;;;;;;;14.45;5.90;;;;;;;5.88;100.00;102246.63;5014235;28;20029;-70
2022/10/09 06:31:19;;;;;;;15.13;6.22;;;;;;;5.92;100.00;102237.22;5012163;28;20098;-70
2022/10/09 06:33:48;;;;;;;12.70;5.90;;;;;;;5.94;100.00;102244.13;5012646;28;20025;-70
2022/10/09 06:36:20;;;;;;;12.88;6.45;;;;;;;5.98;100.00;102240.16;5012501;28;20033;-70
2022/10/09 06:38:46;;;;;;;12.40;6.43;;;;;;;6.01;100.00;102249.75;5020928;28;20040;-70
2022/10/09 06:41:14;;;;;;;12.10;6.70;;;;;;;6.05;100.00;102253.78;5032113;28;20367;-70
2022/10/09 06:43:40;;;;;;;11.50;6.85;;;;;;;6.05;100.00;102251.09;5033583;28;20017;-70
2022/10/09 06:46:09;;;;;;;22.25;13.63;;;;;;;6.10;100.00;102243.41;5024068;28;20032;-70
2022/10/09 06:48:36;;;;;;;51.03;34.90;;;;;;;6.17;100.00;102241.75;5015720;28;20029;-70
2022/10/09 06:51:04;;;;;;;42.20;28.90;;;;;;;6.19;100.00;102241.63;5016015;28;20112;-70
2022/10/09 06:53:32;;;;;;;32.05;21.20;;;;;;;6.28;100.00;102243.31;5016219;28;20025;-70
2022/10/09 06:55:57;;;;;;;40.28;28.00;;;;;;;6.35;100.00;102240.81;5015564;28;20446;-70
2022/10/09 06:58:23;;;;;;;23.25;15.73;;;;;;;6.32;100.00;102246.53;5014485;28;20037;-70
2022/10/09 07:00:49;;;;;;;27.80;16.75;;;;;;;6.42;100.00;102247.25;5028211;28;20156;-69
2022/10/09 07:03:14;;;;;;;29.90;22.35;;;;;;;6.50;100.00;102243.72;5015889;28;20453;-70
2022/10/09 07:05:40;;;;;;;19.35;13.43;;;;;;;6.58;100.00;102241.03;5017966;28;20017;-70
2022/10/09 07:08:05;;;;;;;16.83;9.30;;;;;;;6.57;100.00;102240.22;5034011;28;20364;-70
2022/10/09 07:10:30;;;;;;;19.73;9.55;;;;;;;6.68;100.00;102246.31;5035719;28;20044;-70
2022/10/09 07:12:56;;;;;;;16.90;11.50;;;;;;;6.74;100.00;102245.63;5034897;28;20461;-72
2022/10/09 07:15:21;;;;;;;15.60;9.95;;;;;;;6.78;100.00;102244.31;5050332;28;20024;-70
2022/10/09 07:17:46;;;;;;;22.13;14.68;;;;;;;6.83;100.00;102244.63;5032569;28;20411;-70
2022/10/09 07:20:12;;;;;;;18.70;11.95;;;;;;;6.88;100.00;102246.81;5015509;28;20458;-70
2022/10/09 07:22:37;;;;;;;14.15;8.10;;;;;;;6.97;100.00;102242.31;5015651;28;20524;-70
2022/10/09 07:25:03;;;;;;;14.35;9.35;;;;;;;7.04;100.00;102248.72;5014023;28;20025;-70
2022/10/09 07:27:28;;;;;;;15.23;8.02;;;;;;;7.10;100.00;102245.34;5025949;28;20060;-70
2022/10/09 07:29:54;;;;;;;15.57;8.10;;;;;;;7.15;100.00;102245.66;5032507;28;20037;-70
2022/10/09 07:32:19;;;;;;;11.75;7.47;;;;;;;7.21;100.00;102238.78;5033632;28;20029;-73
2022/10/09 07:34:44;;;;;;;13.13;7.28;;;;;;;7.32;100.00;102246.50;5034419;28;20048;-73
2022/10/09 07:37:09;;;;;;;16.27;7.85;;;;;;;7.38;100.00;102245.00;5034483;28;20488;-72
2022/10/09 07:39:35;;;;;;;16.10;8.02;;;;;;;7.42;100.00;102240.97;5019542;28;20483;-71
2022/10/09 07:42:01;;;;;;;16.02;7.43;;;;;;;7.47;100.00;102238.59;5015065;28;20021;-72
2022/10/09 07:44:27;;;;;;;14.52;7.35;;;;;;;7.53;100.00;102234.38;5014032;28;20025;-72
2022/10/09 07:46:52;;;;;;;12.00;7.60;;;;;;;7.60;100.00;102238.06;5015023;28;20446;-71
2022/10/09 07:49:17;;;;;;;14.20;8.15;;;;;;;7.69;100.00;102241.59;5018594;28;20125;-72
2022/10/09 07:51:44;;;;;;;13.90;8.75;;;;;;;7.74;100.00;102239.22;5023058;28;20022;-70
2022/10/09 07:54:09;;;;;;;15.80;8.90;;;;;;;7.80;100.00;102241.22;5017257;28;20032;-71
2022/10/09 07:56:36;;;;;;;14.82;8.68;;;;;;;7.82;100.00;102241.91;5021340;28;20385;-72
2022/10/09 07:59:10;;;;;;;15.18;8.90;;;;;;;7.89;100.00;102242.88;5030017;28;20029;-73
2022/10/09 08:01:35;;;;;;;14.38;9.43;;;;;;;7.95;100.00;102236.78;5012920;28;20426;-74
2022/10/09 08:04:02;;;;;;;16.67;9.35;;;;;;;8.04;100.00;102228.69;5022839;28;20051;-71
2022/10/09 08:06:28;;;;;;;22.10;12.57;;;;;;;8.08;100.00;102238.94;5033602;28;20037;-71
2022/10/09 08:08:56;;;;;;;13.82;9.00;;;;;;;8.16;100.00;102230.00;5024443;28;20033;-70
2022/10/09 08:11:23;;;;;;;20.15;8.88;;;;;;;8.25;100.00;102228.09;5031227;28;20061;-72
2022/10/09 08:13:49;;;;;;;14.38;8.07;;;;;;;8.31;100.00;102225.53;5034436;28;20103;-71
2022/10/09 08:16:15;;;;;;;15.27;8.60;;;;;;;8.37;100.00;102223.16;5026373;28;20036;-75
2022/10/09 08:18:40;;;;;;;19.13;9.07;;;;;;;8.44;100.00;102226.84;5047373;28;20523;-71
2022/10/09 08:21:09;;;;;;;14.27;7.97;;;;;;;8.51;100.00;102228.69;5033263;28;20072;-71
2022/10/09 08:23:35;;;;;;;11.25;8.02;;;;;;;8.56;100.00;102221.88;5032394;28;20539;-71
2022/10/09 08:26:00;;;;;;;12.88;8.00;;;;;;;8.64;100.00;102224.56;5033282;28;20053;-71
2022/10/09 08:28:26;;;;;;;18.48;8.48;;;;;;;8.69;100.00;102222.97;5034016;28;20503;-71
2022/10/09 08:30:51;;;;;;;16.90;9.40;;;;;;;8.77;100.00;102221.25;5032479;28;20044;-70
2022/10/09 08:33:20;;;;;;;15.40;8.38;;;;;;;8.83;100.00;102210.59;5032320;28;20025;-70
2022/10/09 08:35:50;;;;;;;14.85;8.30;;;;;;;8.91;100.00;102212.38;5033586;28;20100;-70
2022/10/09 08:38:15;;;;;;;15.07;8.20;;;;;;;8.98;100.00;102213.34;5032801;28;20029;-71
2022/10/09 08:41:01;;;;;;;14.13;8.27;;;;;;;9.08;100.00;102206.88;5033577;28;20108;-70
2022/10/09 08:43:34;;;;;;;15.07;8.52;;;;;;;9.15;100.00;102210.50;5027303;28;20037;-71
2022/10/09 08:46:05;;;;;;;16.77;9.20;;;;;;;9.21;100.00;102212.50;5032040;28;20037;-72
2022/10/09 08:48:39;;;;;;;18.15;8.85;;;;;;;9.29;100.00;102203.47;5033019;28;20037;-71
2022/10/09 08:51:08;;;;;;;14.63;8.40;;;;;;;9.37;100.00;102206.91;5029900;28;20037;-71
2022/10/09 08:54:05;;;;;;;17.05;9.52;;;;;;;9.46;100.00;102206.84;5016051;28;20083;-71
2022/10/09 08:56:33;;;;;;;16.50;8.00;;;;;;;9.54;100.00;102194.09;5032914;28;20623;-71
2022/10/09 08:58:58;;;;;;;18.25;7.75;;;;;;;9.67;100.00;102193.44;5032425;28;20029;-70
2022/10/09 09:01:38;;;;;;;15.65;7.13;;;;;;;9.79;100.00;102198.41;5030248;28;20025;-70
2022/10/09 09:04:22;;;;;;;22.15;7.72;;;;;;;9.85;100.00;102190.38;5019877;28;20469;-71
2022/10/09 09:06:56;;;;;;;12.73;7.00;;;;;;;9.93;100.00;102184.88;5013066;28;20029;-69
2022/10/09 09:09:24;;;;;;;16.60;7.13;;;;;;;10.01;100.00;102188.47;5017242;28;20029;-72
2022/10/09 09:12:03;;;;;;;15.15;7.28;;;;;;;10.08;100.00;102184.00;5031632;28;20365;-72
2022/10/09 09:14:35;;;;;;;14.88;8.13;;;;;;;10.17;100.00;102182.84;5031627;28;20021;-75
2022/10/09 09:17:30;;;;;;;17.02;8.02;;;;;;;10.25;100.00;102176.50;5031521;28;20025;-70
2022/10/09 09:20:02;;;;;;;14.40;7.15;;;;;;;10.37;100.00;102174.16;5025772;28;20041;-70
2022/10/09 09:22:29;;;;;;;16.95;6.80;;;;;;;10.49;100.00;102175.34;5021910;28;20072;-71
2022/10/09 09:24:57;;;;;;;14.82;7.38;;;;;;;10.60;100.00;102174.84;5032849;28;20033;-70
2022/10/09 09:27:32;;;;;;;14.68;6.63;;;;;;;10.66;100.00;102167.84;5031318;28;20060;-70
2022/10/09 09:30:03;;;;;;;18.10;6.95;;;;;;;10.73;100.00;102154.34;5013184;28;20425;-71
2022/10/09 09:32:31;;;;;;;12.88;6.10;;;;;;;10.78;100.00;102162.75;5013326;28;20021;-69
2022/10/09 09:35:15;;;;;;;12.65;6.80;;;;;;;10.86;100.00;102145.53;5020365;28;20103;-69
2022/10/09 09:37:40;;;;;;;15.00;7.10;;;;;;;10.98;100.00;102141.25;5029612;28;20396;-70
2022/10/09 09:40:13;;;;;;;13.73;6.18;;;;;;;11.04;99.79;102137.75;5013056;28;20033;-69
2022/10/09 09:42:39;;;;;;;12.52;6.10;;;;;;;11.15;98.83;102136.38;5013215;28;20038;-69
2022/10/09 09:45:19;;;;;;;13.20;5.80;;;;;;;11.25;95.30;102139.56;5012149;28;20025;-70
2022/10/09 09:47:50;;;;;;;11.27;5.90;;;;;;;11.33;94.20;102133.16;5013212;28;20022;-69
2022/10/09 09:50:28;;;;;;;12.73;5.90;;;;;;;11.39;95.10;102131.53;5012762;28;20048;-70
2022/10/09 09:52:54;;;;;;;14.35;6.20;;;;;;;11.48;90.86;102123.03;5012887;28;20021;-69
2022/10/09 09:55:30;;;;;;;14.73;5.65;;;;;;;11.55;91.86;102114.09;5027496;28;20080;-70
2022/10/09 09:58:16;;;;;;;12.60;5.97;;;;;;;11.67;92.34;102115.19;5012933;28;20026;-70
2022/10/09 10:00:56;;;;;;;10.45;5.00;;;;;;;11.75;92.32;102111.50;5010593;28;20022;-69
2022/10/09 10:03:22;;;;;;;10.57;5.50;;;;;;;11.81;89.72;102113.41;5025312;28;20381;-70
2022/10/09 10:05:47;;;;;;;12.43;5.53;;;;;;;11.96;88.47;102113.28;5033649;28;20480;-69
2022/10/09 10:08:22;;;;;;;9.73;5.25;;;;;;;12.05;86.33;102109.34;5029355;28;20108;-70
2022/10/09 10:10:49;;;;;;;14.35;5.00;;;;;;;12.05;82.52;102102.03;5032427;28;20025;-73
2022/10/09 10:13:18;;;;;;;8.68;4.68;;;;;;;12.14;81.90;102094.53;5015089;28;20029;-69
2022/10/09 10:15:50;;;;;;;12.10;5.05;;;;;;;12.21;82.26;102106.25;5021729;28;20077;-69
2022/10/09 10:18:17;;;;;;;13.27;4.82;;;;;;;12.28;80.74;102098.13;5028637;28;20471;-70
2022/10/09 10:20:51;;;;;;;11.55;5.05;;;;;;;12.30;79.55;102095.19;5035351;28;20721;-68
2022/10/09 10:23:41;;;;;;;13.80;5.35;;;;;;;12.38;85.41;102095.84;5036471;28;20045;-69
2022/10/09 10:26:23;;;;;;;9.45;4.20;;;;;;;12.44;78.71;102094.19;5036571;28;20045;-69
2022/10/09 10:29:04;;;;;;;8.85;4.53;;;;;;;12.49;79.64;102086.25;5016914;28;20145;-69
2022/10/09 10:31:48;;;;;;;8.40;4.90;;;;;;;12.55;81.51;102087.31;5017762;28;20486;-69
2022/10/09 10:34:21;;;;;;;8.32;4.65;;;;;;;12.63;80.45;102078.13;5016330;28;20268;-70
2022/10/09 10:36:55;;;;;;;7.88;4.55;;;;;;;12.66;79.52;102077.69;5025418;28;20020;-71
2022/10/09 10:39:34;;;;;;;11.57;4.35;;;;;;;12.70;80.80;102073.53;5035832;28;20116;-69
2022/10/09 10:42:08;;;;;;;9.82;3.97;;;;;;;12.75;76.73;102065.56;5034298;28;20028;-70
2022/10/09 10:44:47;;;;;;;11.05;3.92;;;;;;;12.79;75.61;102066.84;5019847;28;20029;-71
2022/10/09 10:47:19;;;;;;;8.43;4.03;;;;;;;12.89;78.06;102061.81;5036038;28;20029;-72
2022/10/09 10:49:44;;;;;;;11.98;4.28;;;;;;;12.96;76.50;102063.69;5034791;28;20445;-71
2022/10/09 10:52:23;;;;;;;13.38;4.60;;;;;;;12.94;75.05;102053.03;5035850;28;20027;-69
2022/10/09 10:55:25;;;;;;;8.55;3.50;;;;;;;13.03;75.94;102042.75;5034699;28;20457;-71
2022/10/09 10:57:53;;;;;;;8.43;3.05;;;;;;;13.07;72.28;102047.56;5030171;28;20021;-71
2022/10/09 11:00:19;;;;;;;6.55;3.25;;;;;;;13.18;71.42;102046.09;5031332;28;20106;-72
2022/10/09 11:03:11;;;;;;;8.00;3.15;;;;;;;13.28;71.16;102045.63;5032843;28;20053;-72
2022/10/09 11:06:17;;;;;;;8.75;3.45;;;;;;;13.35;72.36;102048.38;5025983;28;20037;-73
2022/10/09 11:08:54;;;;;;;10.48;3.30;;;;;;;13.39;69.25;102027.84;4996825;28;20038;-75
2022/10/09 11:11:38;;;;;;;8.98;3.50;;;;;;;13.49;71.42;102033.66;5028915;28;20041;-71
2022/10/09 11:14:17;;;;;;;8.10;3.53;;;;;;;13.57;71.13;102035.28;5015469;28;20116;-71
2022/10/09 11:17:07;;;;;;;9.65;3.83;;;;;;;13.63;72.08;102023.56;5022731;28;20040;-71
2022/10/09 11:19:48;;;;;;;8.98;3.50;;;;;;;13.65;69.67;102033.16;5041071;28;20029;-71
2022/10/09 11:22:34;;;;;;;7.53;3.20;;;;;;;13.68;70.75;102020.19;5032676;28;20392;-71
2022/10/09 11:25:35;;;;;;;9.15;3.20;;;;;;;13.71;69.54;102019.75;5026338;28;20045;-71
2022/10/09 11:28:42;;;;;;;10.70;3.33;;;;;;;13.82;72.16;102008.19;5016435;28;20034;-71